createdAt,value
2018-12-26T00:01:45.699Z,71.63
2018-12-26T00:06:50.268Z,71.82
2018-12-26T00:11:54.729Z,71.49
2018-12-26T00:16:59.062Z,71.46
2018-12-26T00:22:03.522Z,71.88
2018-12-26T00:27:07.936Z,71.43
2018-12-26T00:32:12.290Z,71.14
2018-12-26T00:37:16.651Z,71.13
2018-12-26T00:42:20.993Z,71.25
2018-12-26T00:47:25.373Z,70.89
2018-12-26T00:52:29.723Z,71.20
2018-12-26T00:57:34.107Z,71.15
2018-12-26T01:02:38.504Z,71.25
2018-12-26T01:07:42.834Z,71.25
2018-12-26T01:12:47.182Z,71.35
2018-12-26T01:17:51.930Z,71.30
2018-12-26T01:22:56.257Z,70.92
2018-12-26T01:28:00.622Z,71.07
2018-12-26T01:33:04.971Z,70.89
2018-12-26T01:38:09.359Z,70.69
2018-12-26T01:43:13.698Z,70.98
2018-12-26T01:48:19.120Z,71.37
2018-12-26T01:53:23.542Z,71.26
2018-12-26T01:58:27.933Z,71.14
2018-12-26T02:03:32.302Z,71.19
2018-12-26T02:08:36.718Z,71.47
2018-12-26T02:13:41.059Z,71.44
2018-12-26T02:18:45.430Z,71.65
2018-12-26T02:23:49.890Z,71.28
2018-12-26T02:28:54.242Z,71.38
2018-12-26T02:33:58.592Z,71.04
2018-12-26T02:39:03.260Z,71.23
2018-12-26T02:44:07.763Z,70.86
2018-12-26T02:49:12.133Z,71.29
2018-12-26T02:54:16.575Z,71.35
2018-12-26T02:59:20.963Z,71.51
2018-12-26T03:04:25.316Z,71.76
2018-12-26T03:09:29.666Z,71.72
2018-12-26T03:14:34.086Z,71.61
2018-12-26T03:19:38.464Z,72.08
2018-12-26T03:24:42.851Z,71.77
2018-12-26T03:29:47.220Z,72.14
2018-12-26T03:34:51.619Z,72.16
2018-12-26T03:39:56.059Z,72.11
2018-12-26T03:45:02.527Z,72.18
2018-12-26T03:50:08.052Z,71.57
2018-12-26T03:55:12.445Z,71.69
2018-12-26T04:00:16.794Z,71.85
2018-12-26T04:05:21.813Z,71.83
2018-12-26T04:10:26.218Z,71.93
2018-12-26T04:15:30.691Z,72.22
2018-12-26T04:20:35.243Z,72.13
2018-12-26T04:25:39.787Z,72.25
2018-12-26T04:30:44.153Z,72.53
2018-12-26T04:35:48.526Z,72.57
2018-12-26T04:40:52.866Z,72.36
2018-12-26T04:45:57.245Z,71.99
2018-12-26T04:51:01.629Z,72.28
2018-12-26T04:56:06.051Z,72.45
2018-12-26T05:01:10.409Z,72.40
2018-12-26T05:06:14.744Z,72.29
2018-12-26T05:11:19.143Z,72.28
2018-12-26T05:16:23.600Z,71.84
2018-12-26T05:21:27.978Z,71.24
2018-12-26T05:26:32.390Z,71.42
2018-12-26T05:31:36.745Z,71.24
2018-12-26T05:36:41.178Z,70.98
2018-12-26T05:41:45.744Z,70.78
2018-12-26T05:46:50.157Z,70.32
2018-12-26T05:51:54.541Z,70.32
2018-12-26T05:56:58.888Z,70.20
2018-12-26T06:02:03.362Z,70.45
2018-12-26T06:07:07.711Z,70.51
2018-12-26T06:12:12.077Z,70.47
2018-12-26T06:17:16.468Z,70.65
2018-12-26T06:22:20.812Z,69.84
2018-12-26T06:27:25.181Z,69.62
2018-12-26T06:32:29.556Z,69.51
2018-12-26T06:37:33.912Z,69.24
2018-12-26T06:42:38.267Z,68.82
2018-12-26T06:47:42.644Z,68.81
2018-12-26T06:52:47.043Z,69.20
2018-12-26T06:57:59.899Z,69.73
2018-12-26T07:02:57.465Z,70.02
2018-12-26T07:08:01.840Z,70.02
2018-12-26T07:13:06.231Z,70.06
2018-12-26T07:18:10.603Z,70.43
2018-12-26T07:23:14.980Z,70.56
2018-12-26T07:28:19.309Z,70.43
2018-12-26T07:33:23.655Z,70.33
2018-12-26T07:38:28.007Z,70.87
2018-12-26T07:43:32.357Z,70.85
2018-12-26T07:48:36.800Z,71.50
2018-12-26T07:53:41.209Z,71.32
2018-12-26T07:58:45.629Z,71.38
2018-12-26T08:03:50.034Z,71.08
2018-12-26T08:08:54.394Z,70.51
2018-12-26T08:13:58.852Z,70.74
2018-12-26T08:19:03.210Z,70.20
2018-12-26T08:24:07.579Z,69.98
2018-12-26T08:29:11.980Z,69.87
2018-12-26T08:34:16.719Z,70.23
2018-12-26T08:39:21.609Z,70.07
2018-12-26T08:44:26.537Z,70.07
2018-12-26T08:49:32.917Z,70.37
2018-12-26T08:54:37.686Z,70.59
2018-12-26T08:59:42.623Z,70.92
2018-12-26T09:04:47.662Z,70.78
2018-12-26T09:09:52.515Z,71.18
2018-12-26T09:14:58.488Z,71.39
2018-12-26T09:20:03.451Z,71.67
2018-12-26T09:25:09.565Z,71.96
2018-12-26T09:30:15.155Z,72.25
2018-12-26T09:35:21.056Z,73.79
2018-12-26T09:40:27.837Z,73.72
2018-12-26T09:45:32.580Z,73.83
2018-12-26T09:50:37.017Z,74.26
2018-12-26T09:55:41.389Z,74.22
2018-12-26T10:00:45.734Z,74.29
2018-12-26T10:05:50.151Z,74.87
2018-12-26T10:10:54.549Z,75.06
2018-12-26T10:15:58.901Z,75.22
2018-12-26T10:21:03.359Z,75.78
2018-12-26T10:26:07.797Z,76.13
2018-12-26T10:31:12.146Z,76.75
2018-12-26T10:36:16.478Z,77.56
2018-12-26T10:41:20.842Z,76.99
2018-12-26T10:46:25.202Z,76.94
2018-12-26T10:51:31.430Z,76.85
2018-12-26T10:56:36.848Z,76.37
2018-12-26T11:01:41.367Z,76.39
2018-12-26T11:06:45.752Z,76.42
2018-12-26T11:11:50.124Z,76.45
2018-12-26T11:16:54.742Z,76.44
2018-12-26T11:22:00.047Z,76.21
2018-12-26T11:27:04.441Z,77.40
2018-12-26T11:32:08.828Z,78.17
2018-12-26T11:37:13.278Z,77.39
2018-12-26T11:42:17.864Z,78.06
2018-12-26T11:47:22.250Z,77.38
2018-12-26T11:52:26.624Z,77.47
2018-12-26T11:57:31.147Z,77.73
2018-12-26T12:02:35.549Z,77.76
2018-12-26T12:07:39.943Z,77.85
2018-12-26T12:12:44.261Z,78.78
2018-12-26T12:17:48.664Z,79.63
2018-12-26T12:22:53.011Z,80.67
2018-12-26T12:27:57.363Z,80.35
2018-12-26T12:33:01.918Z,79.91
2018-12-26T12:38:06.972Z,80.42
2018-12-26T12:43:11.412Z,80.34
2018-12-26T12:48:15.888Z,80.94
2018-12-26T12:53:20.290Z,82.01
2018-12-26T12:58:24.651Z,81.12
2018-12-26T13:03:29.020Z,80.39
2018-12-26T13:08:33.358Z,80.55
2018-12-26T13:13:37.822Z,82.87
2018-12-26T13:18:42.220Z,82.01
2018-12-26T13:23:46.606Z,83.09
2018-12-26T13:28:50.942Z,83.64
2018-12-26T13:33:55.314Z,84.29
2018-12-26T13:38:59.748Z,84.69
2018-12-26T13:44:04.158Z,84.52
2018-12-26T13:49:08.541Z,85.00
2018-12-26T13:54:12.925Z,85.61
2018-12-26T13:59:17.280Z,87.36
2018-12-26T14:04:21.693Z,87.93
2018-12-26T14:09:26.075Z,87.95
2018-12-26T14:14:30.417Z,87.30
2018-12-26T14:19:36.208Z,87.95
2018-12-26T14:24:40.642Z,88.22
2018-12-26T14:29:45.122Z,87.94
2018-12-26T14:34:49.496Z,87.46
2018-12-26T14:39:53.868Z,87.04
2018-12-26T14:45:02.016Z,87.44
2018-12-26T14:50:11.128Z,86.87
2018-12-26T14:55:27.798Z,86.74
2018-12-26T15:00:43.293Z,86.73
2018-12-26T15:05:47.471Z,86.75
2018-12-26T15:10:51.982Z,87.85
2018-12-26T15:15:56.344Z,88.31
2018-12-26T15:21:00.713Z,87.83
2018-12-26T15:26:06.174Z,87.83
2018-12-26T15:31:10.508Z,87.51
2018-12-26T15:36:14.881Z,87.65
2018-12-26T15:41:19.235Z,87.82
2018-12-26T15:46:23.652Z,87.48
2018-12-26T15:51:28.083Z,88.08
2018-12-26T15:56:32.885Z,88.05
2018-12-26T16:01:37.260Z,88.31
2018-12-26T16:06:41.601Z,88.40
2018-12-26T16:11:45.975Z,88.19
2018-12-26T16:16:51.303Z,88.19
2018-12-26T16:21:55.723Z,88.43
2018-12-26T16:27:00.064Z,88.13
2018-12-26T16:32:04.537Z,88.67
2018-12-26T16:37:08.927Z,89.18
2018-12-26T16:42:13.308Z,89.86
2018-12-26T16:47:17.663Z,89.21
2018-12-26T16:52:22.035Z,89.05
2018-12-26T16:57:26.407Z,89.57
2018-12-26T17:02:30.802Z,89.54
2018-12-26T17:07:35.209Z,89.61
2018-12-26T17:12:39.558Z,88.95
2018-12-26T17:17:43.933Z,89.99
2018-12-26T17:22:48.391Z,89.75
2018-12-26T17:27:52.728Z,90.26
2018-12-26T17:33:00.763Z,90.63
2018-12-26T17:38:03.190Z,90.64
2018-12-26T17:43:07.773Z,90.25
2018-12-26T17:48:12.116Z,91.24
2018-12-26T17:53:21.596Z,91.71
2018-12-26T17:58:40.987Z,91.77
2018-12-26T18:03:45.382Z,92.38
2018-12-26T18:08:49.840Z,91.72
2018-12-26T18:13:55.288Z,91.65
2018-12-26T18:18:59.731Z,91.84
2018-12-26T18:24:04.276Z,92.14
2018-12-26T18:29:08.712Z,91.77
2018-12-26T18:34:13.103Z,91.30
2018-12-26T18:39:17.453Z,91.21
2018-12-26T18:44:21.876Z,91.44
2018-12-26T18:49:26.228Z,91.41
2018-12-26T18:54:30.642Z,91.23
2018-12-26T18:59:35.418Z,91.16
2018-12-26T19:04:39.773Z,90.58
2018-12-26T19:09:44.130Z,90.61
2018-12-26T19:14:48.494Z,90.77
2018-12-26T19:19:52.867Z,90.78
2018-12-26T19:24:57.241Z,90.43
2018-12-26T19:30:01.622Z,90.47
2018-12-26T19:35:11.492Z,90.43
2018-12-26T19:40:15.892Z,90.49
2018-12-26T19:45:20.260Z,90.23
2018-12-26T19:50:24.660Z,91.20
2018-12-26T19:55:28.986Z,90.68
2018-12-26T20:00:33.361Z,90.51
2018-12-26T20:05:37.762Z,90.64
2018-12-26T20:10:42.111Z,90.90
2018-12-26T20:15:46.500Z,90.79
2018-12-26T20:20:50.903Z,90.93
2018-12-26T20:25:55.321Z,90.68
2018-12-26T20:30:59.759Z,90.50
2018-12-26T20:36:04.162Z,91.00
2018-12-26T20:41:08.560Z,91.51
2018-12-26T20:46:12.925Z,91.35
2018-12-26T20:51:17.370Z,91.60
2018-12-26T20:56:21.838Z,91.77
2018-12-26T21:01:26.219Z,90.95
2018-12-26T21:06:30.726Z,90.92
2018-12-26T21:11:35.108Z,90.86
2018-12-26T21:16:39.594Z,90.90
2018-12-26T21:21:44.050Z,90.89
2018-12-26T21:26:48.572Z,91.00
2018-12-26T21:31:52.974Z,90.89
2018-12-26T21:36:57.337Z,90.64
2018-12-26T21:42:01.716Z,90.35
2018-12-26T21:47:07.698Z,91.11
2018-12-26T21:52:12.145Z,91.49
2018-12-26T21:57:16.573Z,91.25
2018-12-26T22:02:22.586Z,92.48
2018-12-26T22:07:26.986Z,92.50
2018-12-26T22:12:31.393Z,92.42
2018-12-26T22:17:35.928Z,92.58
2018-12-26T22:22:40.328Z,92.79
2018-12-26T22:27:46.343Z,92.54
2018-12-26T22:32:50.720Z,91.88
2018-12-26T22:37:55.089Z,92.60
2018-12-26T22:42:59.442Z,92.30
2018-12-26T22:48:04.122Z,92.37
2018-12-26T22:53:08.481Z,93.48
2018-12-26T22:58:13.254Z,93.26
2018-12-26T23:03:18.067Z,93.46
2018-12-26T23:08:22.460Z,93.92
2018-12-26T23:13:26.816Z,94.33
2018-12-26T23:18:31.196Z,93.87
2018-12-26T23:23:35.681Z,94.28
2018-12-26T23:28:40.034Z,94.01
2018-12-26T23:33:44.554Z,94.50
2018-12-26T23:38:48.931Z,93.43
2018-12-26T23:43:53.311Z,92.84
2018-12-26T23:48:57.767Z,92.17
2018-12-26T23:54:02.117Z,92.98
2018-12-26T23:59:06.812Z,93.06
